Samaria, MI (48177)

5:23 AM EDT on March 25, 2017 (GMT -0400)
Jackman and Erie | | Change Station

Elev 656 ft 41.79 °N, 83.59 °W | Updated 14 seconds ago

Mostly Cloudy
Mostly Cloudy
45.3 °F
Feels Like 44 °F
N
3.6
Wind Variable Wind from East
Gusts 4.9 mph

Today
High -- | Low -- °F
--% Chance of Precip.
Yesterday
High -- | Low -- °F
Precip. -- in
Pressure 30.07 in
Visibility 10.0 miles
Clouds Scattered Clouds 9000 ft
Windchill 44 °F
Dew Point 39 °F
Humidity 79%
Rainfall 0.00 in
Snow Depth Not available.
7:28 AM 7:52 PM
Waning Crescent, 9% visible
METAR KDUH 250854Z AUTO 12007KT 10SM SCT090 08/05 A3007 RMK AO2 T00800045
Pressure 30.07 in
Visibility 10.0 miles
Clouds Scattered Clouds 9000 ft
Windchill 44 °F
Dew Point 39 °F
Humidity 79%
Rainfall 0.00 in
Snow Depth Not available.
7:28 AM 7:52 PM
Waning Crescent, 9% visible
METAR KDUH 250854Z AUTO 12007KT 10SM SCT090 08/05 A3007 RMK AO2 T00800045

Get Severe Weather Alerts

Thanks for signing up!

Be on the lookout for a verification email in your inbox.

You'll start receiving the daily forecast at 8 AM.

×

10-Day Weather Forecast

Almanac

Astronomy

Mar. 25, 2017 Rise Set
Actual Time
Civil Twilight
Nautical Twilight
Astronomical Twilight
Moon
Length of Visible Light
Length of Day
Tomorrow will be .
, % of the Moon is Illuminated

Today's Extremes

State Highs State Lows

Community

WunderPhotos

Upload Photos

1,962,540 photos uploaded!

WunderBlog® & News

Nearby

Air Quality

  Air Quality AQ Index Pollutant
Not available.

Snow Depth

Station Depth Elevation

Earthquake Activity

City Distance Mag. Time & Date
Minimum magnitude displayed is 2.5.

Earthquake Activity

City Distance Mag. Time & Date
Minimum magnitude displayed is 2.5.

Coastal Water Temperatures

Place Temperature

Stations

Nearby Weather Stations

Station Location Temp. Windchill Dew Point Humidity Wind Precip. Elev Updated Type
                   

Watches & Warnings

There are currently no watches in effect.